Time;durP1;ratioP1;P1;durP2;ratioP2;P2;SDS_P1;SDS_P2;PMS_P1;PMS_P2;Temp;Humidity;BMP_temperature;BMP_pressure;BME280_temperature;BME280_humidity;BME280_pressure;Samples;Min_cycle;Max_cycle;Signal;HPM_P1;HPM_P2
2023/01/01 00:01:09;;;;;;;;;;;;;;;9.19;72.79;102979.78;5105581;28;19921;-81
2023/01/01 00:03:34;;;;;;;;;;;;;;;9.21;72.89;102987.72;5105665;28;19960;-81
2023/01/01 00:06:04;;;;;;;;;;;;;;;9.20;72.74;102985.91;5072867;28;19986;-81
2023/01/01 00:08:29;;;;;;;;;;;;;;;9.20;72.93;102984.22;5100942;28;19928;-81
2023/01/01 00:10:54;;;;;;;;;;;;;;;9.20;72.77;102989.44;5073014;28;19917;-81
2023/01/01 00:13:20;;;;;;;;;;;;;;;9.17;73.08;102986.56;5105132;28;20305;-83
2023/01/01 00:15:45;;;;;;;;;;;;;;;9.17;72.98;102986.56;5072784;28;20378;-81
2023/01/01 00:18:11;;;;;;;;;;;;;;;9.17;73.02;102989.16;5105563;28;19919;-82
2023/01/01 00:20:36;;;;;;;;;;;;;;;9.21;72.92;102993.91;5072529;28;20377;-83
2023/01/01 00:23:02;;;;;;;;;;;;;;;9.16;72.98;102996.06;5101268;28;20390;-83
2023/01/01 00:25:27;;;;;;;;;;;;;;;9.20;73.03;103001.56;5063847;28;20423;-83
2023/01/01 00:27:53;;;;;;;;;;;;;;;9.16;72.96;103006.50;5105060;28;19916;-83
2023/01/01 00:30:18;;;;;;;;;;;;;;;9.18;73.07;103011.81;5105200;28;19916;-83
2023/01/01 00:32:44;;;;;;;;;;;;;;;9.19;72.61;103005.88;5072212;28;19917;-83
2023/01/01 00:35:10;;;;;;;;;;;;;;;9.15;72.88;103004.63;5073015;28;19974;-83
2023/01/01 00:37:35;;;;;;;;;;;;;;;9.16;72.83;103005.56;5104837;28;19920;-82
2023/01/01 00:40:00;;;;;;;;;;;;;;;9.20;72.92;103007.69;5099364;28;20409;-82
2023/01/01 00:42:26;;;;;;;;;;;;;;;9.17;72.73;103007.41;5067067;28;19978;-83
2023/01/01 00:44:51;;;;;;;;;;;;;;;9.15;72.72;103008.94;5072212;28;19916;-83
2023/01/01 00:47:17;;;;;;;;;;;;;;;9.14;72.80;103009.69;5072440;28;20451;-83
2023/01/01 00:49:42;;;;;;;;;;;;;;;9.14;72.70;103008.03;5105016;28;20374;-83
2023/01/01 00:52:08;;;;;;;;;;;;;;;9.15;72.84;103008.94;5090398;28;20451;-83
2023/01/01 00:54:33;;;;;;;;;;;;;;;9.13;72.74;103014.00;5072142;28;19951;-83
2023/01/01 00:56:58;;;;;;;;;;;;;;;9.15;72.91;103011.56;5104165;28;19924;-83
2023/01/01 00:59:24;;;;;;;;;;;;;;;9.12;73.03;103009.56;5087865;28;20416;-83
2023/01/01 01:01:49;;;;;;;;;;;;;;;9.15;72.79;103004.63;5063763;28;20402;-83
2023/01/01 01:04:15;;;;;;;;;;;;;;;9.16;72.72;103002.94;5071850;28;19920;-83
2023/01/01 01:06:40;;;;;;;;;;;;;;;9.12;72.93;103009.56;5071428;28;20436;-83
2023/01/01 01:09:06;;;;;;;;;;;;;;;9.14;72.80;103000.22;5103667;28;20398;-83
2023/01/01 01:11:31;;;;;;;;;;;;;;;9.16;72.79;103008.16;5094071;28;20318;-84
2023/01/01 01:13:57;;;;;;;;;;;;;;;9.15;72.82;102998.53;5104570;28;20018;-83
2023/01/01 01:16:30;;;;;;;;;;;;;;;9.15;72.66;102998.53;5104078;28;20026;-83
2023/01/01 01:18:56;;;;;;;;;;;;;;;9.11;72.70;102993.78;5087219;28;20294;-83
2023/01/01 01:21:22;;;;;;;;;;;;;;;9.11;72.93;102992.09;5098360;28;19921;-83
2023/01/01 01:23:49;;;;;;;;;;;;;;;9.12;72.78;102983.50;5104306;28;19927;-83
2023/01/01 01:26:19;;;;;;;;;;;;;;;9.13;72.89;102977.50;5103642;28;20297;-83
2023/01/01 01:28:45;;;;;;;;;;;;;;;9.09;72.79;102978.00;5103832;28;20309;-83
2023/01/01 01:31:10;;;;;;;;;;;;;;;9.12;72.77;102977.34;5077602;28;20432;-83
2023/01/01 01:33:36;;;;;;;;;;;;;;;9.08;72.87;102980.44;5087134;28;20428;-83
2023/01/01 01:36:02;;;;;;;;;;;;;;;9.11;72.95;102983.34;5103720;28;19923;-82
2023/01/01 01:38:27;;;;;;;;;;;;;;;9.09;73.08;102983.19;5071174;28;20405;-82
2023/01/01 01:40:53;;;;;;;;;;;;;;;9.12;72.79;102979.97;5090556;28;19920;-82
2023/01/01 01:43:22;;;;;;;;;;;;;;;9.10;72.87;102984.09;5061566;28;20390;-82
2023/01/01 01:45:47;;;;;;;;;;;;;;;9.07;72.87;102982.13;5071086;28;20433;-82
2023/01/01 01:48:13;;;;;;;;;;;;;;;9.08;72.89;102976.16;5059420;28;19971;-82
2023/01/01 01:50:38;;;;;;;;;;;;;;;9.08;73.02;102973.56;5064270;28;20374;-82
2023/01/01 01:53:04;;;;;;;;;;;;;;;9.09;72.51;102974.47;5061448;28;19916;-82
2023/01/01 01:55:30;;;;;;;;;;;;;;;9.10;72.60;102973.69;5070985;28;20389;-82
2023/01/01 01:57:55;;;;;;;;;;;;;;;9.07;72.71;102976.00;5103697;28;19916;-81
2023/01/01 02:00:21;;;;;;;;;;;;;;;9.07;72.84;102976.91;5100385;28;19920;-82
2023/01/01 02:02:51;;;;;;;;;;;;;;;9.08;72.75;102983.03;5057351;28;19948;-82
2023/01/01 02:05:17;;;;;;;;;;;;;;;9.08;72.55;102978.78;5064898;28;19927;-83
2023/01/01 02:07:43;;;;;;;;;;;;;;;9.08;72.92;102972.63;5071124;28;19916;-82
2023/01/01 02:10:08;;;;;;;;;;;;;;;9.06;72.91;102969.88;5103175;28;19921;-82
2023/01/01 02:12:33;;;;;;;;;;;;;;;9.06;72.92;102980.31;5088621;28;20389;-83
2023/01/01 02:14:59;;;;;;;;;;;;;;;9.05;72.77;102980.16;5069518;28;20001;-82
2023/01/01 02:17:27;;;;;;;;;;;;;;;9.05;72.89;102973.25;5070749;28;19917;-82
2023/01/01 02:19:53;;;;;;;;;;;;;;;9.06;72.61;102980.31;5071028;28;20381;-82
2023/01/01 02:22:28;;;;;;;;;;;;;;;9.07;72.60;102973.41;5070463;28;19928;-82
2023/01/01 02:24:56;;;;;;;;;;;;;;;9.06;72.45;102968.94;5081735;28;19917;-82
2023/01/01 02:27:22;;;;;;;;;;;;;;;9.09;72.36;102974.47;5074475;28;19920;-82
2023/01/01 02:30:13;;;;;;;;;;;;;;;9.06;72.73;102976.75;5074836;28;20368;-82
2023/01/01 02:32:47;;;;;;;;;;;;;;;9.02;72.78;102972.97;5071847;28;19928;-82
2023/01/01 02:35:33;;;;;;;;;;;;;;;9.03;72.62;102969.56;5074951;28;19995;-81
2023/01/01 02:38:18;;;;;;;;;;;;;;;9.03;72.53;102972.19;5102716;28;19980;-82
2023/01/01 02:40:46;;;;;;;;;;;;;;;9.06;72.48;102955.91;5103702;28;20462;-81
2023/01/01 02:43:11;;;;;;;;;;;;;;;9.02;72.69;102957.34;5065026;28;19921;-82
2023/01/01 02:45:36;;;;;;;;;;;;;;;9.01;72.67;102952.88;5074052;28;20389;-82
2023/01/01 02:48:03;;;;;;;;;;;;;;;8.97;72.67;102950.75;5107391;28;20302;-81
2023/01/01 02:50:28;;;;;;;;;;;;;;;9.00;72.49;102952.75;5070975;28;19955;-82
2023/01/01 02:53:06;;;;;;;;;;;;;;;9.00;72.93;102953.66;5072428;28;20374;-82
2023/01/01 02:55:57;;;;;;;;;;;;;;;8.98;72.78;102951.69;5072662;28;20436;-82
2023/01/01 03:01:27;;;;;;;;;;;;;;;8.96;72.86;102952.44;5074496;28;19924;-82
2023/01/01 03:03:59;;;;;;;;;;;;;;;8.96;72.70;102946.31;5073969;28;20020;-82
2023/01/01 03:06:32;;;;;;;;;;;;;;;8.99;72.80;102946.59;5072388;28;20364;-82
2023/01/01 03:09:07;;;;;;;;;;;;;;;8.98;72.97;102951.69;5101991;28;19924;-82
2023/01/01 03:11:47;;;;;;;;;;;;;;;8.94;72.92;102953.97;5070837;28;19917;-82
2023/01/01 03:14:19;;;;;;;;;;;;;;;8.99;72.60;102959.63;5106520;28;19917;-82
2023/01/01 03:16:47;;;;;;;;;;;;;;;8.96;72.69;102960.25;5061137;28;19920;-82
2023/01/01 03:19:12;;;;;;;;;;;;;;;8.96;72.59;102957.66;5073839;28;19916;-82
2023/01/01 03:21:39;;;;;;;;;;;;;;;8.94;72.79;102967.00;5073975;28;19924;-82
2023/01/01 03:24:05;;;;;;;;;;;;;;;8.92;72.77;102957.22;5106239;28;20287;-82
2023/01/01 03:26:33;;;;;;;;;;;;;;;8.94;72.75;102961.81;5072879;28;19931;-82
2023/01/01 03:28:59;;;;;;;;;;;;;;;8.92;72.90;102963.34;5065145;28;19921;-82
2023/01/01 03:31:25;;;;;;;;;;;;;;;8.92;72.78;102970.25;5089042;28;19916;-82
2023/01/01 03:34:10;;;;;;;;;;;;;;;8.93;72.60;102964.25;5073643;28;20398;-82
2023/01/01 03:36:39;;;;;;;;;;;;;;;8.96;72.72;102964.56;5084407;28;19916;-82
2023/01/01 03:39:06;;;;;;;;;;;;;;;8.98;72.76;102965.63;5103570;28;20526;-82
2023/01/01 03:41:33;;;;;;;;;;;;;;;8.95;72.65;102967.91;5062439;28;19927;-82
2023/01/01 03:44:03;;;;;;;;;;;;;;;8.93;72.66;102967.81;5105982;28;19936;-82
2023/01/01 03:46:29;;;;;;;;;;;;;;;8.91;72.82;102971.94;5073396;28;19916;-82
2023/01/01 03:48:55;;;;;;;;;;;;;;;8.92;72.69;102978.97;5105454;28;19920;-82
2023/01/01 03:51:40;;;;;;;;;;;;;;;8.89;72.88;102975.16;5093218;28;20310;-81
2023/01/01 03:54:07;;;;;;;;;;;;;;;8.92;72.56;102973.75;5046316;28;19935;-82
2023/01/01 03:56:36;;;;;;;;;;;;;;;8.88;72.93;102973.34;5073327;28;19963;-82
2023/01/01 03:59:06;;;;;;;;;;;;;;;8.90;72.74;102983.13;5073209;28;20394;-82
2023/01/01 04:01:32;;;;;;;;;;;;;;;8.91;72.45;102981.44;5072983;28;19917;-82
2023/01/01 04:03:58;;;;;;;;;;;;;;;8.90;72.55;102982.22;5084232;28;20011;-82
2023/01/01 04:06:24;;;;;;;;;;;;;;;8.89;72.77;102985.56;5105375;28;20416;-82
2023/01/01 04:08:49;;;;;;;;;;;;;;;8.86;72.88;102980.06;5105702;28;20011;-83
2023/01/01 04:14:00;;;;;;;;;;;;;;;8.89;72.61;102990.78;5100513;28;19951;-82
2023/01/01 04:16:25;;;;;;;;;;;;;;;8.90;72.77;102997.84;5085838;28;19928;-82
2023/01/01 04:18:51;;;;;;;;;;;;;;;8.87;72.76;102995.88;5105673;28;20397;-82
2023/01/01 04:21:16;;;;;;;;;;;;;;;8.86;72.75;102996.63;5105724;28;20317;-83
2023/01/01 04:23:42;;;;;;;;;;;;;;;8.91;72.47;102991.84;5105512;28;19971;-84
2023/01/01 04:26:11;;;;;;;;;;;;;;;8.88;72.49;102995.09;5072097;28;20413;-83
2023/01/01 04:28:36;;;;;;;;;;;;;;;8.90;72.76;102996.16;5100497;28;20313;-83
2023/01/01 04:31:02;;;;;;;;;;;;;;;8.87;72.89;102993.25;5105259;28;20317;-83
2023/01/01 04:33:27;;;;;;;;;;;;;;;8.86;72.82;102998.31;5072782;28;20393;-83
2023/01/01 04:35:52;;;;;;;;;;;;;;;8.84;73.06;102998.16;5105173;28;20379;-83
2023/01/01 04:38:18;;;;;;;;;;;;;;;8.82;72.72;102996.19;5072325;28;20595;-83
2023/01/01 04:40:43;;;;;;;;;;;;;;;8.86;72.85;102990.50;5063980;28;20378;-83
2023/01/01 04:43:09;;;;;;;;;;;;;;;8.86;72.66;102991.41;5071820;28;20386;-83
2023/01/01 04:45:34;;;;;;;;;;;;;;;8.86;72.86;102996.63;5072303;28;20286;-83
2023/01/01 04:48:04;;;;;;;;;;;;;;;8.83;72.70;102991.13;5105131;28;20385;-83
2023/01/01 04:50:29;;;;;;;;;;;;;;;8.83;72.84;102996.34;5060546;28;20295;-83
2023/01/01 04:52:54;;;;;;;;;;;;;;;8.83;72.56;102998.03;5061735;28;19920;-83
2023/01/01 04:55:20;;;;;;;;;;;;;;;8.82;72.59;102996.19;5091645;28;20378;-83
2023/01/01 04:57:46;;;;;;;;;;;;;;;8.80;72.68;102996.03;5072278;28;20390;-83
2023/01/01 05:00:12;;;;;;;;;;;;;;;8.87;72.40;102990.66;5104223;28;20378;-83
2023/01/01 05:02:37;;;;;;;;;;;;;;;8.80;73.02;102998.63;5070855;28;19917;-83
2023/01/01 05:05:03;;;;;;;;;;;;;;;8.81;72.69;102996.97;5057768;28;20450;-83
2023/01/01 05:07:28;;;;;;;;;;;;;;;8.81;72.68;102997.88;5069875;28;20441;-83
2023/01/01 05:09:54;;;;;;;;;;;;;;;8.81;72.76;102999.56;5071881;28;20062;-83
2023/01/01 05:12:19;;;;;;;;;;;;;;;8.77;72.75;103006.16;5104366;28;19917;-83
2023/01/01 05:14:45;;;;;;;;;;;;;;;8.75;73.13;103006.00;5081926;28;20397;-83
2023/01/01 05:17:10;;;;;;;;;;;;;;;8.76;72.87;103010.47;5052962;28;20443;-83
2023/01/01 05:19:35;;;;;;;;;;;;;;;8.76;72.96;103001.72;5058406;28;20378;-83
2023/01/01 05:22:01;;;;;;;;;;;;;;;8.77;72.71;102998.34;5071900;28;20386;-83
2023/01/01 05:24:26;;;;;;;;;;;;;;;8.75;72.94;103010.31;5104101;28;19920;-83
2023/01/01 05:26:52;;;;;;;;;;;;;;;8.80;72.58;103014.25;5065644;28;20384;-83
2023/01/01 05:29:18;;;;;;;;;;;;;;;8.77;72.70;103006.16;5067684;28;19970;-83
2023/01/01 05:31:44;;;;;;;;;;;;;;;8.81;72.69;103010.00;5072079;28;19924;-83
2023/01/01 05:34:11;;;;;;;;;;;;;;;8.77;72.90;103008.78;5069454;28;20141;-83
2023/01/01 05:36:37;;;;;;;;;;;;;;;8.76;72.63;103017.34;5071566;28;20007;-83
2023/01/01 05:39:05;;;;;;;;;;;;;;;8.76;72.81;103025.16;5063400;28;19943;-83
2023/01/01 05:41:32;;;;;;;;;;;;;;;8.78;72.53;103010.59;5071609;28;20653;-83
2023/01/01 05:44:00;;;;;;;;;;;;;;;8.75;72.84;103021.63;5071359;28;19920;-82
2023/01/01 05:46:25;;;;;;;;;;;;;;;8.75;72.64;103018.13;5102282;28;19917;-82
2023/01/01 05:48:51;;;;;;;;;;;;;;;8.73;72.58;103007.53;5068385;28;19924;-82
2023/01/01 05:51:20;;;;;;;;;;;;;;;8.72;72.76;103016.16;5067567;28;19943;-82
2023/01/01 05:53:45;;;;;;;;;;;;;;;8.74;72.88;103006.78;5103425;28;20025;-83
2023/01/01 05:56:11;;;;;;;;;;;;;;;8.73;72.77;103010.16;5103803;28;19946;-83
2023/01/01 05:58:37;;;;;;;;;;;;;;;8.73;72.92;103019.66;5066070;28;19981;-83
2023/01/01 06:01:08;;;;;;;;;;;;;;;8.73;72.60;103019.66;5091551;28;20516;-83
2023/01/01 06:03:34;;;;;;;;;;;;;;;8.72;72.66;103020.41;5066025;28;20295;-83
2023/01/01 06:06:03;;;;;;;;;;;;;;;8.70;72.61;103020.28;5102455;28;19966;-83
2023/01/01 06:08:29;;;;;;;;;;;;;;;8.70;72.97;103027.16;5089723;28;19920;-83
2023/01/01 06:11:01;;;;;;;;;;;;;;;8.72;72.77;103025.63;5069237;28;20434;-83
2023/01/01 06:13:27;;;;;;;;;;;;;;;8.70;72.91;103021.94;5102697;28;20011;-83
2023/01/01 06:15:53;;;;;;;;;;;;;;;8.71;72.67;103022.09;5064158;28;20420;-83
2023/01/01 06:18:18;;;;;;;;;;;;;;;8.71;72.82;103018.59;5100139;28;19924;-82
2023/01/01 06:20:44;;;;;;;;;;;;;;;8.71;72.74;103015.97;5102162;28;20029;-83
2023/01/01 06:23:09;;;;;;;;;;;;;;;8.72;72.74;103023.00;5101549;28;19927;-83
2023/01/01 06:25:34;;;;;;;;;;;;;;;8.69;72.70;103025.34;5069387;28;20413;-83
2023/01/01 06:28:00;;;;;;;;;;;;;;;8.69;72.69;103020.13;5064679;28;20386;-83
2023/01/01 06:30:25;;;;;;;;;;;;;;;8.66;72.92;103018.16;5065734;28;20047;-82
2023/01/01 06:32:52;;;;;;;;;;;;;;;8.69;72.61;103028.84;5069707;28;19924;-82
2023/01/01 06:35:17;;;;;;;;;;;;;;;8.68;72.71;103034.84;5068405;28;20405;-83
2023/01/01 06:37:42;;;;;;;;;;;;;;;8.69;72.70;103034.06;5070412;28;19971;-82
2023/01/01 06:40:08;;;;;;;;;;;;;;;8.66;72.79;103036.38;5090216;28;20322;-82
2023/01/01 06:42:33;;;;;;;;;;;;;;;8.67;72.73;103038.19;5070293;28;20447;-82
2023/01/01 06:44:59;;;;;;;;;;;;;;;8.71;72.59;103044.63;5070167;28;19917;-82
2023/01/01 06:47:24;;;;;;;;;;;;;;;8.69;72.45;103039.28;5068376;28;19920;-83
2023/01/01 06:49:50;;;;;;;;;;;;;;;8.65;72.58;103041.44;5076794;28;20385;-83
2023/01/01 06:52:15;;;;;;;;;;;;;;;8.65;72.77;103044.03;5067556;28;20533;-83
2023/01/01 06:54:40;;;;;;;;;;;;;;;8.65;72.66;103051.84;5102144;28;20306;-83
2023/01/01 06:57:06;;;;;;;;;;;;;;;8.67;72.97;103058.13;5096076;28;20404;-82
2023/01/01 06:59:31;;;;;;;;;;;;;;;8.63;72.70;103067.31;5060772;28;20390;-83
2023/01/01 07:01:57;;;;;;;;;;;;;;;8.66;72.68;103064.13;5096971;28;20396;-82
2023/01/01 07:04:22;;;;;;;;;;;;;;;8.65;72.69;103062.28;5066374;28;20310;-82
2023/01/01 07:06:47;;;;;;;;;;;;;;;8.65;72.63;103068.38;5092062;28;20405;-82
2023/01/01 07:09:13;;;;;;;;;;;;;;;8.64;72.65;103068.25;5074289;28;20361;-82
2023/01/01 07:11:38;;;;;;;;;;;;;;;8.63;72.62;103063.81;5105007;28;20519;-83
2023/01/01 07:14:04;;;;;;;;;;;;;;;8.64;72.54;103063.97;5069484;28;20345;-83
2023/01/01 07:16:29;;;;;;;;;;;;;;;8.68;72.59;103063.50;5073503;28;19971;-83
2023/01/01 07:18:56;;;;;;;;;;;;;;;8.60;72.60;103067.03;5073145;28;20432;-82
2023/01/01 07:21:28;;;;;;;;;;;;;;;8.64;72.56;103063.97;5103981;28;20378;-83
2023/01/01 07:23:57;;;;;;;;;;;;;;;8.65;72.39;103067.47;5105573;28;19917;-83
2023/01/01 07:26:23;;;;;;;;;;;;;;;8.61;72.79;103071.47;5066981;28;19920;-82
2023/01/01 07:28:49;;;;;;;;;;;;;;;8.61;72.71;103065.34;5106408;28;20382;-83
2023/01/01 07:31:14;;;;;;;;;;;;;;;8.61;72.61;103070.53;5073444;28;19928;-83
2023/01/01 07:33:40;;;;;;;;;;;;;;;8.72;72.48;103065.63;5072946;28;19917;-83
2023/01/01 07:36:05;;;;;;;;;;;;;;;8.64;72.51;103068.25;5101578;28;20429;-83
2023/01/01 07:38:31;;;;;;;;;;;;;;;8.62;72.50;103068.09;5085980;28;19925;-82
2023/01/01 07:40:56;;;;;;;;;;;;;;;8.64;72.46;103071.78;5072554;28;19978;-82
2023/01/01 07:43:21;;;;;;;;;;;;;;;8.64;72.71;103070.88;5097835;28;22617;-83
2023/01/01 07:45:47;;;;;;;;;;;;;;;8.64;72.63;103071.78;5059851;28;20390;-84
2023/01/01 07:48:13;;;;;;;;;;;;;;;8.68;72.54;103070.41;5090578;28;19928;-84
2023/01/01 07:50:38;;;;;;;;;;;;;;;8.68;72.55;103075.63;5056485;28;19925;-84
2023/01/01 07:53:04;;;;;;;;;;;;;;;8.69;72.44;103080.03;5054147;28;19924;-84
2023/01/01 07:55:29;;;;;;;;;;;;;;;8.65;72.37;103078.81;5058675;28;19927;-84
2023/01/01 07:57:55;;;;;;;;;;;;;;;8.71;72.49;103082.03;5068287;28;19924;-84
2023/01/01 08:00:20;;;;;;;;;;;;;;;8.74;72.42;103081.41;5073156;28;20710;-84
2023/01/01 08:02:46;;;;;;;;;;;;;;;8.76;72.35;103078.19;5105564;28;19927;-84
2023/01/01 08:05:11;;;;;;;;;;;;;;;8.71;72.28;103079.41;5105631;28;19959;-84
2023/01/01 08:07:36;;;;;;;;;;;;;;;8.72;72.41;103078.66;5103843;28;19921;-85
2023/01/01 08:10:03;;;;;;;;;;;;;;;8.71;72.31;103079.41;5064383;28;20015;-84
2023/01/01 08:12:28;;;;;;;;;;;;;;;8.70;72.31;103075.00;5069177;28;20429;-85
2023/01/01 08:14:54;;;;;;;;;;;;;;;8.70;72.45;103068.84;5068809;28;19956;-84
2023/01/01 08:17:19;;;;;;;;;;;;;;;8.78;72.18;103067.91;5051622;28;20393;-84
2023/01/01 08:19:45;;;;;;;;;;;;;;;8.72;72.40;103073.47;5049747;28;19983;-84
2023/01/01 08:22:11;;;;;;;;;;;;;;;8.75;72.10;103075.44;5067531;28;19925;-85
2023/01/01 08:24:36;;;;;;;;;;;;;;;8.74;72.32;103076.19;5063316;28;19978;-82
2023/01/01 08:27:02;;;;;;;;;;;;;;;8.75;72.15;103068.53;5067093;28;20393;-85
2023/01/01 08:29:27;;;;;;;;;;;;;;;8.76;72.02;103073.00;5087137;28;20433;-86
2023/01/01 08:31:52;;;;;;;;;;;;;;;8.72;72.12;103067.31;5056277;28;20002;-85
2023/01/01 08:34:18;;;;;;;;;;;;;;;8.73;72.27;103054.44;5069269;28;20512;-86
2023/01/01 08:36:43;;;;;;;;;;;;;;;8.71;72.34;103066.38;5085107;28;20376;-85
2023/01/01 08:39:09;;;;;;;;;;;;;;;8.75;72.25;103067.63;5070665;28;20351;-86
2023/01/01 08:41:34;;;;;;;;;;;;;;;8.77;72.36;103067.00;5086308;28;19921;-86
2023/01/01 08:43:59;;;;;;;;;;;;;;;8.78;72.27;103060.09;5091047;28;19921;-87
2023/01/01 08:46:25;;;;;;;;;;;;;;;8.74;72.19;103056.28;5069254;28;20015;-86
2023/01/01 08:48:50;;;;;;;;;;;;;;;8.71;72.36;103060.28;5100249;28;20405;-86
2023/01/01 08:51:16;;;;;;;;;;;;;;;8.69;72.56;103051.38;5052087;28;20415;-85
2023/01/01 08:53:41;;;;;;;;;;;;;;;8.67;72.65;103058.13;5049618;28;20509;-82
2023/01/01 08:56:07;;;;;;;;;;;;;;;8.65;72.58;103057.06;5055830;28;20321;-86
2023/01/01 08:58:34;;;;;;;;;;;;;;;8.67;72.45;103066.84;5062786;28;20053;-85
2023/01/01 09:01:00;;;;;;;;;;;;;;;8.68;72.83;103062.59;5102647;28;19924;-85
2023/01/01 09:03:25;;;;;;;;;;;;;;;8.69;72.62;103062.72;5085107;28;19920;-86
2023/01/01 09:05:51;;;;;;;;;;;;;;;8.68;72.46;103063.50;5063639;28;19970;-85
2023/01/01 09:08:17;;;;;;;;;;;;;;;8.69;72.68;103064.41;5072152;28;19944;-86
2023/01/01 09:10:42;;;;;;;;;;;;;;;8.60;72.94;103067.03;5080624;28;19916;-84
2023/01/01 09:13:08;;;;;;;;;;;;;;;8.53;73.18;103059.38;5090858;28;19931;-86
2023/01/01 09:15:34;;;;;;;;;;;;;;;8.53;72.97;103054.19;5071893;28;19917;-86
2023/01/01 09:17:59;;;;;;;;;;;;;;;8.46;73.54;103060.44;5070775;28;19923;-87
2023/01/01 09:20:24;;;;;;;;;;;;;;;8.51;73.32;103055.72;5062496;28;19994;-86
2023/01/01 09:22:50;;;;;;;;;;;;;;;8.42;73.66;103060.00;5051190;28;20464;-87
2023/01/01 09:25:15;;;;;;;;;;;;;;;8.43;73.61;103046.22;5103997;28;20382;-85
2023/01/01 09:27:41;;;;;;;;;;;;;;;8.45;73.64;103048.19;5051238;28;19960;-84
2023/01/01 09:30:09;;;;;;;;;;;;;;;8.49;73.45;103047.75;5059335;28;20011;-85
2023/01/01 09:32:34;;;;;;;;;;;;;;;8.53;73.45;103049.88;5071228;28;19921;-86
2023/01/01 09:35:00;;;;;;;;;;;;;;;8.49;73.64;103042.53;5104267;28;19999;-86
2023/01/01 09:37:25;;;;;;;;;;;;;;;8.48;73.48;103035.47;5064311;28;19925;-86
2023/01/01 09:39:51;;;;;;;;;;;;;;;8.49;73.26;103029.50;5070576;28;20442;-85
2023/01/01 09:42:35;;;;;;;;;;;;;;;8.60;73.09;103029.66;5058571;28;20570;-86
2023/01/01 09:45:15;;;;;;;;;;;;;;;8.51;73.38;103022.78;5060143;28;20305;-87
2023/01/01 09:47:45;;;;;;;;;;;;;;;8.51;73.55;103024.47;5082929;28;19921;-86
2023/01/01 09:50:14;;;;;;;;;;;;;;;8.48;73.51;103024.16;5089859;28;20005;-86
2023/01/01 09:52:45;;;;;;;;;;;;;;;8.50;73.67;103031.34;5100039;28;19955;-86
2023/01/01 09:55:13;;;;;;;;;;;;;;;8.49;73.77;103032.13;5103840;28;19920;-87
2023/01/01 09:57:40;;;;;;;;;;;;;;;8.51;73.72;103029.66;5103904;28;19973;-86
2023/01/01 10:00:06;;;;;;;;;;;;;;;8.51;73.47;103021.88;5103779;28;19920;-86
2023/01/01 10:02:34;;;;;;;;;;;;;;;8.46;73.61;103028.28;5103552;28;19920;-86
2023/01/01 10:05:06;;;;;;;;;;;;;;;8.49;73.63;103026.91;5093294;28;20453;-87
2023/01/01 10:07:34;;;;;;;;;;;;;;;8.47;73.90;103020.63;5067081;28;19932;-87
2023/01/01 10:10:38;;;;;;;;;;;;;;;8.52;73.72;103019.38;5069666;28;20302;-85
2023/01/01 10:13:22;;;;;;;;;;;;;;;8.50;73.56;103020.00;5088790;28;20000;-87
2023/01/01 10:16:07;;;;;;;;;;;;;;;8.48;73.72;103019.84;5089070;28;19916;-85
2023/01/01 10:18:37;;;;;;;;;;;;;;;8.48;74.05;103012.03;5061080;28;19920;-86
2023/01/01 10:21:09;;;;;;;;;;;;;;;8.52;73.88;103010.66;5064194;28;20019;-87
2023/01/01 10:23:39;;;;;;;;;;;;;;;8.48;74.01;103005.91;5086346;28;19916;-86
2023/01/01 10:26:07;;;;;;;;;;;;;;;8.49;74.01;103011.28;5102029;28;19928;-86
2023/01/01 10:28:34;;;;;;;;;;;;;;;8.52;74.09;103013.25;5102491;28;19917;-88
2023/01/01 10:31:15;;;;;;;;;;;;;;;8.52;73.96;103013.25;5076694;28;20083;-84
2023/01/01 10:33:40;;;;;;;;;;;;;;;8.50;73.94;103002.69;5070829;28;19920;-83
2023/01/01 10:36:06;;;;;;;;;;;;;;;8.55;73.98;103010.94;5070679;28;19928;-84
2023/01/01 10:38:32;;;;;;;;;;;;;;;8.52;73.81;103010.66;5070980;28;19924;-83
2023/01/01 10:40:59;;;;;;;;;;;;;;;8.52;73.87;103008.06;5103753;28;20347;-84
2023/01/01 10:43:25;;;;;;;;;;;;;;;8.55;73.79;102995.31;5107440;28;19917;-84
2023/01/01 10:45:51;;;;;;;;;;;;;;;8.61;73.58;103001.13;5090421;28;19924;-84
2023/01/01 10:48:17;;;;;;;;;;;;;;;8.59;73.69;102991.34;5107251;28;19920;-84
2023/01/01 10:50:44;;;;;;;;;;;;;;;8.63;73.76;102983.06;5063322;28;19921;-84
2023/01/01 10:53:20;;;;;;;;;;;;;;;8.72;73.90;102981.34;5059083;28;19920;-83
2023/01/01 10:55:49;;;;;;;;;;;;;;;8.73;73.24;102978.88;5057258;28;19924;-86
2023/01/01 10:58:26;;;;;;;;;;;;;;;8.73;73.66;102972.78;5066376;28;19952;-84
2023/01/01 11:00:58;;;;;;;;;;;;;;;8.70;73.93;102975.06;5050379;28;20011;-85
2023/01/01 11:03:23;;;;;;;;;;;;;;;8.65;74.17;102960.69;5095689;28;19921;-84
2023/01/01 11:06:15;;;;;;;;;;;;;;;8.68;74.36;102969.72;5074088;28;20460;-86
2023/01/01 11:08:45;;;;;;;;;;;;;;;8.72;74.20;102969.25;5063005;28;19927;-85
2023/01/01 11:11:18;;;;;;;;;;;;;;;8.69;73.58;102961.13;5074474;28;20401;-85
2023/01/01 11:13:46;;;;;;;;;;;;;;;8.68;73.91;102966.22;5070008;28;19927;-86
2023/01/01 11:16:11;;;;;;;;;;;;;;;8.71;73.64;102962.19;5056925;28;20325;-86
2023/01/01 11:18:37;;;;;;;;;;;;;;;8.69;73.66;102955.00;5071540;28;20018;-86
2023/01/01 11:21:03;;;;;;;;;;;;;;;8.69;73.50;102952.41;5062093;28;20315;-87
2023/01/01 11:23:33;;;;;;;;;;;;;;;8.69;73.56;102941.97;5072491;28;19963;-86
2023/01/01 11:26:19;;;;;;;;;;;;;;;8.74;73.23;102948.53;5057547;28;20342;-86
2023/01/01 11:29:05;;;;;;;;;;;;;;;8.73;73.31;102941.50;5061698;28;19921;-84
2023/01/01 11:31:33;;;;;;;;;;;;;;;8.75;73.21;102945.19;5049085;28;20390;-85
2023/01/01 11:33:59;;;;;;;;;;;;;;;8.73;73.23;102933.69;5098096;28;19973;-85
2023/01/01 11:36:24;;;;;;;;;;;;;;;8.74;73.57;102930.31;5105306;28;19913;-85
2023/01/01 11:38:50;;;;;;;;;;;;;;;8.74;73.14;102928.63;5073452;28;19920;-85
2023/01/01 11:41:16;;;;;;;;;;;;;;;8.75;73.15;102924.34;5099200;28;19916;-85
2023/01/01 11:43:44;;;;;;;;;;;;;;;8.70;73.65;102910.88;5071623;28;20017;-85
2023/01/01 11:46:14;;;;;;;;;;;;;;;8.79;72.88;102915.13;5106163;28;20412;-85
2023/01/01 11:48:40;;;;;;;;;;;;;;;8.79;73.36;102912.53;5085523;28;19962;-85
2023/01/01 11:51:06;;;;;;;;;;;;;;;8.80;72.81;102912.66;5068599;28;20583;-85
2023/01/01 11:53:45;;;;;;;;;;;;;;;8.77;73.28;102905.47;5058965;28;19920;-84
2023/01/01 11:56:11;;;;;;;;;;;;;;;8.79;73.37;102913.44;5067912;28;19917;-85
2023/01/01 11:58:40;;;;;;;;;;;;;;;8.81;73.15;102914.50;5095604;28;19925;-86
2023/01/01 12:01:09;;;;;;;;;;;;;;;8.83;73.27;102906.84;5088599;28;19916;-87
2023/01/01 12:03:37;;;;;;;;;;;;;;;8.87;73.11;102908.94;5053177;28;19920;-85
2023/01/01 12:06:07;;;;;;;;;;;;;;;8.88;73.00;102914.31;5064452;28;19921;-85
2023/01/01 12:08:59;;;;;;;;;;;;;;;8.89;72.74;102915.22;5077202;28;20387;-85
2023/01/01 12:11:27;;;;;;;;;;;;;;;8.86;73.09;102907.13;5069236;28;19920;-85
2023/01/01 12:13:55;;;;;;;;;;;;;;;8.87;72.93;102920.31;5071489;28;19922;-85
2023/01/01 12:16:34;;;;;;;;;;;;;;;8.89;72.91;102915.22;5070735;28;19921;-84
2023/01/01 12:19:01;;;;;;;;;;;;;;;8.90;73.11;102910.16;5061028;28;19923;-83
2023/01/01 12:21:27;;;;;;;;;;;;;;;8.91;73.28;102909.41;5056884;28;20011;-86
2023/01/01 12:23:54;;;;;;;;;;;;;;;8.92;73.09;102919.03;5062479;28;19928;-86
2023/01/01 12:26:33;;;;;;;;;;;;;;;8.93;73.02;102913.06;5078080;28;19924;-87
2023/01/01 12:29:10;;;;;;;;;;;;;;;9.10;72.58;102919.88;5051488;28;19920;-87
2023/01/01 12:31:41;;;;;;;;;;;;;;;9.07;72.92;102921.28;5058461;28;20464;-87
2023/01/01 12:34:33;;;;;;;;;;;;;;;9.04;72.70;102910.53;5052363;28;20402;-86
2023/01/01 12:37:17;;;;;;;;;;;;;;;9.06;72.80;102922.03;5051413;28;19920;-82
2023/01/01 12:40:01;;;;;;;;;;;;;;;9.08;72.58;102921.44;5058267;28;20071;-89
2023/01/01 12:42:29;;;;;;;;;;;;;;;9.08;72.65;102917.88;5058157;28;19921;-86
2023/01/01 12:44:55;;;;;;;;;;;;;;;9.10;72.25;102917.28;5072942;28;19917;-86
2023/01/01 12:47:56;;;;;;;;;;;;;;;9.10;72.35;102921.53;5058942;28;20400;-88
2023/01/01 12:50:40;;;;;;;;;;;;;;;9.17;72.23;102926.59;5060282;28;19932;-89
2023/01/01 12:53:24;;;;;;;;;;;;;;;9.22;72.21;102919.19;5067816;28;20385;-87
2023/01/01 12:56:03;;;;;;;;;;;;;;;9.21;72.24;102928.72;5070921;28;20011;-90
2023/01/01 12:58:33;;;;;;;;;;;;;;;9.25;72.10;102924.69;5084276;28;19999;-89